Terminal Aerodrome Forecast
Issued by NWS Portland, ME

Current Version | Previous Version | Text Only | Print | Product List | Glossary On
Versions: 1 2 3 4 5 6 7 8 9 10 11 12 13 14 15 16 17 18 19
000 FTUS41 KGYX 080531 TAFCON TAF KCON 080531Z 0806/0906 15004KT 6SM BR SCT025 BKN120 FM081000 23005KT 5SM -SHRA BKN025 OVC040 FM081500 32008KT P6SM SCT050 BKN100 FM090000 33005KT P6SM SCT250=

USA.gov is the U.S. government's official web portal to all federal, state and local government web resources and services.